Time;durP1;ratioP1;P1;durP2;ratioP2;P2;SDS_P1;SDS_P2;PMS_P1;PMS_P2;Temp;Humidity;BMP_temperature;BMP_pressure;BME280_temperature;BME280_humidity;BME280_pressure;Samples;Min_cycle;Max_cycle;Signal;HPM_P1;HPM_P2
2021/01/29 00:00:48;;;;;;;24.05;13.20;;;4.40;94.20;;;;;;2094935;28;20033;-81
2021/01/29 00:01:49;;;;;;;21.45;12.38;;;4.40;94.20;;;;;;2095465;28;20057;-81
2021/01/29 00:02:53;;;;;;;21.13;11.52;;;4.40;94.20;;;;;;2074991;28;20605;-81
2021/01/29 00:03:54;;;;;;;21.20;11.70;;;4.40;94.20;;;;;;2074732;28;20037;-81
2021/01/29 00:04:54;;;;;;;19.35;10.95;;;4.40;94.20;;;;;;2087677;28;20395;-81
2021/01/29 00:05:58;;;;;;;21.83;11.73;;;4.40;94.20;;;;;;2089878;28;20487;-81
2021/01/29 00:06:58;;;;;;;22.48;12.35;;;4.40;94.20;;;;;;2086344;28;20028;-82
2021/01/29 00:07:59;;;;;;;21.38;11.75;;;4.40;94.20;;;;;;2083368;28;20505;-81
2021/01/29 00:09:00;;;;;;;27.95;14.00;;;4.40;94.20;;;;;;2076155;28;20072;-81
2021/01/29 00:10:02;;;;;;;22.20;12.90;;;4.40;94.20;;;;;;2080468;28;20088;-81
2021/01/29 00:11:05;;;;;;;26.65;14.25;;;4.40;94.10;;;;;;2076790;28;20029;-81
2021/01/29 00:12:06;;;;;;;22.10;12.27;;;4.40;94.20;;;;;;2085888;28;20126;-82
2021/01/29 00:13:08;;;;;;;26.65;13.77;;;4.40;94.20;;;;;;2075205;28;20025;-81
2021/01/29 00:14:08;;;;;;;22.75;12.75;;;4.40;94.20;;;;;;2070904;28;20030;-81
2021/01/29 00:15:14;;;;;;;24.05;13.32;;;4.40;94.20;;;;;;2062400;28;20026;-82
2021/01/29 00:16:14;;;;;;;24.00;12.88;;;4.40;94.20;;;;;;2073554;28;20056;-81
2021/01/29 00:17:15;;;;;;;22.70;13.32;;;4.40;94.20;;;;;;2072301;28;20484;-82
2021/01/29 00:18:16;;;;;;;23.02;13.13;;;4.40;94.20;;;;;;2084859;28;20116;-82
2021/01/29 00:19:17;;;;;;;21.13;11.98;;;4.40;94.20;;;;;;2105087;28;20425;-82
2021/01/29 00:20:22;;;;;;;26.80;13.65;;;4.40;94.20;;;;;;2095349;28;20025;-82
2021/01/29 00:21:22;;;;;;;22.83;12.55;;;4.40;94.20;;;;;;2086901;28;20394;-82
2021/01/29 00:22:23;;;;;;;21.15;11.48;;;4.40;94.20;;;;;;2072787;28;20026;-81
2021/01/29 00:23:23;;;;;;;24.92;12.98;;;4.40;94.20;;;;;;2077429;28;20041;-82
2021/01/29 00:24:24;;;;;;;24.42;12.85;;;4.50;94.30;;;;;;2081729;28;20044;-81
2021/01/29 00:25:34;;;;;;;22.52;12.10;;;4.50;94.20;;;;;;2081369;28;20052;-82
2021/01/29 00:26:35;;;;;;;26.35;13.50;;;4.50;94.20;;;;;;2066226;28;20030;-82
2021/01/29 00:27:37;;;;;;;31.63;15.15;;;4.50;94.20;;;;;;2071490;28;20022;-81
2021/01/29 00:28:38;;;;;;;26.95;14.60;;;4.50;94.20;;;;;;2077376;28;20459;-82
2021/01/29 00:29:38;;;;;;;25.98;13.52;;;4.50;94.20;;;;;;2088627;28;20037;-81
2021/01/29 00:30:39;;;;;;;24.60;13.05;;;4.40;94.20;;;;;;2085466;28;20025;-82
2021/01/29 00:31:40;;;;;;;24.88;13.57;;;4.40;94.20;;;;;;2079720;28;20033;-82
2021/01/29 00:32:41;;;;;;;24.73;13.43;;;4.50;94.20;;;;;;2072712;28;20032;-82
2021/01/29 00:33:42;;;;;;;24.55;13.45;;;4.50;94.20;;;;;;2080045;28;20557;-82
2021/01/29 00:34:44;;;;;;;23.30;12.85;;;4.50;94.20;;;;;;2087909;28;20033;-83
2021/01/29 00:35:44;;;;;;;24.40;13.23;;;4.50;94.20;;;;;;2085548;28;20026;-82
2021/01/29 00:36:45;;;;;;;27.27;13.18;;;4.50;94.20;;;;;;2075618;28;20390;-82
2021/01/29 00:37:46;;;;;;;36.50;15.60;;;4.50;94.20;;;;;;2068821;28;20046;-81
2021/01/29 00:38:46;;;;;;;33.47;15.38;;;4.50;94.20;;;;;;2071441;28;20472;-82
2021/01/29 00:39:47;;;;;;;24.95;12.80;;;4.50;94.20;;;;;;2079980;28;20391;-82
2021/01/29 00:40:49;;;;;;;29.15;14.07;;;4.50;94.50;;;;;;2072153;28;20030;-82
2021/01/29 00:41:50;;;;;;;23.23;13.60;;;4.50;94.20;;;;;;2071940;28;20025;-82
2021/01/29 00:42:51;;;;;;;33.60;15.75;;;4.50;94.20;;;;;;2088025;28;20029;-81
2021/01/29 00:43:52;;;;;;;26.75;13.85;;;4.50;94.20;;;;;;2080391;28;20056;-82
2021/01/29 00:44:52;;;;;;;24.80;13.55;;;4.50;94.20;;;;;;2072392;28;20467;-82
2021/01/29 00:45:53;;;;;;;43.17;16.98;;;4.50;94.20;;;;;;2079956;28;20081;-82
2021/01/29 00:46:53;;;;;;;34.58;16.30;;;4.50;94.20;;;;;;2080561;28;20049;-82
2021/01/29 00:47:55;;;;;;;32.15;15.05;;;4.50;94.20;;;;;;2086327;28;20029;-82
2021/01/29 00:48:55;;;;;;;44.33;16.55;;;4.50;94.30;;;;;;2097855;28;20028;-82
2021/01/29 00:49:56;;;;;;;40.28;16.17;;;4.50;94.30;;;;;;2076850;28;20022;-81
2021/01/29 00:50:56;;;;;;;42.42;17.73;;;4.50;94.30;;;;;;2080887;28;20480;-82
2021/01/29 00:51:57;;;;;;;35.35;16.77;;;4.50;94.30;;;;;;2089552;28;20041;-81
2021/01/29 00:52:59;;;;;;;31.98;15.75;;;4.40;94.20;;;;;;2084890;28;20028;-82
2021/01/29 00:54:00;;;;;;;48.03;17.60;;;4.50;94.30;;;;;;2073439;28;20022;-82
2021/01/29 00:55:00;;;;;;;33.42;15.88;;;4.50;94.30;;;;;;2080933;28;20427;-82
2021/01/29 00:56:01;;;;;;;32.45;15.73;;;4.40;94.30;;;;;;2073374;28;20033;-82
2021/01/29 00:57:02;;;;;;;30.52;15.60;;;4.40;94.30;;;;;;2075450;28;21006;-82
2021/01/29 00:58:03;;;;;;;29.25;14.45;;;4.50;94.30;;;;;;2084259;28;20056;-82
2021/01/29 00:59:04;;;;;;;31.67;14.77;;;4.40;94.30;;;;;;2081672;28;20033;-82
2021/01/29 01:00:07;;;;;;;40.08;15.27;;;4.50;94.40;;;;;;2074283;28;20033;-82
2021/01/29 01:01:07;;;;;;;32.67;15.07;;;4.50;94.30;;;;;;2065812;28;20026;-82
2021/01/29 01:02:08;;;;;;;27.52;14.32;;;4.50;94.60;;;;;;2077403;28;20495;-82
2021/01/29 01:03:09;;;;;;;39.33;14.60;;;4.40;94.30;;;;;;2095600;28;20017;-82
2021/01/29 01:04:12;;;;;;;28.27;13.93;;;4.50;94.40;;;;;;2073382;28;20076;-82
2021/01/29 01:05:15;;;;;;;30.45;14.73;;;4.50;94.40;;;;;;2075192;28;20029;-82
2021/01/29 01:06:16;;;;;;;43.50;15.70;;;4.50;94.40;;;;;;2086875;28;20040;-82
2021/01/29 01:07:16;;;;;;;35.58;15.30;;;4.50;94.40;;;;;;2082041;28;20021;-82
2021/01/29 01:08:17;;;;;;;41.42;15.90;;;4.50;94.40;;;;;;2080128;28;20026;-82
2021/01/29 01:09:18;;;;;;;53.75;15.73;;;4.50;94.30;;;;;;2065397;28;20108;-82
2021/01/29 01:10:20;;;;;;;26.70;14.30;;;4.50;94.30;;;;;;2073303;28;20037;-82
2021/01/29 01:11:21;;;;;;;38.63;15.57;;;4.50;94.40;;;;;;2073817;28;20037;-82
2021/01/29 01:12:22;;;;;;;28.13;13.93;;;4.50;94.40;;;;;;2060762;28;20240;-83
2021/01/29 01:13:22;;;;;;;23.60;12.95;;;4.50;94.40;;;;;;2058373;28;20031;-82
2021/01/29 01:14:23;;;;;;;31.35;14.35;;;4.50;94.40;;;;;;2059372;28;20066;-82
2021/01/29 01:15:25;;;;;;;29.70;14.60;;;4.50;94.40;;;;;;2073612;28;20034;-82
2021/01/29 01:16:26;;;;;;;36.35;14.55;;;4.60;94.40;;;;;;2086857;28;20064;-82
2021/01/29 01:17:27;;;;;;;38.25;15.60;;;4.60;94.70;;;;;;2073473;28;20857;-82
2021/01/29 01:18:28;;;;;;;51.25;16.55;;;4.50;94.40;;;;;;2085783;28;20032;-82
2021/01/29 01:19:28;;;;;;;44.78;15.90;;;4.60;94.40;;;;;;2081488;28;20050;-82
2021/01/29 01:20:30;;;;;;;59.90;16.70;;;4.50;94.40;;;;;;2078487;28;20033;-82
2021/01/29 01:21:30;;;;;;;32.05;14.75;;;4.60;94.40;;;;;;2072727;28;20030;-82
2021/01/29 01:22:31;;;;;;;36.60;15.32;;;4.50;94.30;;;;;;2072500;28;21097;-82
2021/01/29 01:23:43;;;;;;;64.15;17.13;;;4.60;94.40;;;;;;2083022;28;20029;-82
2021/01/29 01:24:44;;;;;;;33.28;15.40;;;4.60;94.40;;;;;;2087833;28;20037;-83
2021/01/29 01:25:45;;;;;;;29.08;14.55;;;4.50;94.40;;;;;;2083278;28;20475;-82
2021/01/29 01:26:46;;;;;;;45.28;15.52;;;4.60;94.40;;;;;;2081294;28;20039;-82
2021/01/29 01:27:47;;;;;;;36.55;15.18;;;4.60;94.40;;;;;;2083413;28;20033;-82
2021/01/29 01:28:48;;;;;;;42.80;15.88;;;4.60;94.40;;;;;;2098040;28;20510;-82
2021/01/29 01:29:49;;;;;;;63.88;16.83;;;4.50;94.40;;;;;;2083808;28;20034;-82
2021/01/29 01:30:49;;;;;;;52.58;17.63;;;4.50;94.40;;;;;;2083320;28;20561;-82
2021/01/29 01:31:50;;;;;;;43.42;15.93;;;4.60;94.40;;;;;;2084265;28;20210;-82
2021/01/29 01:32:51;;;;;;;30.33;15.40;;;4.60;94.40;;;;;;2077181;28;20112;-82
2021/01/29 01:33:51;;;;;;;35.20;15.02;;;4.60;94.40;;;;;;2073267;28;20034;-82
2021/01/29 01:34:52;;;;;;;34.05;15.00;;;4.60;94.40;;;;;;2083250;28;20029;-83
2021/01/29 01:35:52;;;;;;;50.35;15.70;;;4.60;94.40;;;;;;2082261;28;20454;-82
2021/01/29 01:36:53;;;;;;;45.95;14.98;;;4.60;94.40;;;;;;2073335;28;20026;-82
2021/01/29 01:37:54;;;;;;;37.40;15.73;;;4.60;94.40;;;;;;2085871;28;20064;-82
2021/01/29 01:38:54;;;;;;;38.83;15.23;;;4.60;94.50;;;;;;2081870;28;20116;-83
2021/01/29 01:39:55;;;;;;;35.85;15.13;;;4.60;94.40;;;;;;2073473;28;20026;-82
2021/01/29 01:40:56;;;;;;;28.40;13.68;;;4.60;94.50;;;;;;2079340;28;20401;-82
2021/01/29 01:41:57;;;;;;;54.13;14.98;;;4.60;94.50;;;;;;2074994;28;20076;-82
2021/01/29 01:42:58;;;;;;;63.65;16.95;;;4.60;94.50;;;;;;2075028;28;20045;-81
2021/01/29 01:44:00;;;;;;;89.20;17.55;;;4.60;94.50;;;;;;2079571;28;20164;-82
2021/01/29 01:45:02;;;;;;;42.55;17.08;;;4.60;94.40;;;;;;2071562;28;20033;-82
2021/01/29 01:46:04;;;;;;;47.20;16.42;;;4.60;94.40;;;;;;2084015;28;20053;-82
2021/01/29 01:47:21;;;;;;;72.38;16.88;;;4.60;94.50;;;;;;2080819;28;20013;-82
2021/01/29 01:48:42;;;;;;;64.70;16.45;;;4.60;94.50;;;;;;2074923;28;20022;-82
2021/01/29 01:49:44;;;;;;;45.97;15.70;;;4.60;94.50;;;;;;2080535;28;20034;-82
2021/01/29 01:50:47;;;;;;;40.28;15.32;;;4.60;94.40;;;;;;2081417;28;20036;-82
2021/01/29 01:51:58;;;;;;;109.43;17.92;;;4.60;94.50;;;;;;2089678;28;20071;-82
2021/01/29 01:53:03;;;;;;;67.50;17.45;;;4.60;94.40;;;;;;2084902;28;20021;-82
2021/01/29 01:54:14;;;;;;;41.10;16.25;;;4.60;94.40;;;;;;2075553;28;20027;-82
2021/01/29 01:55:19;;;;;;;40.15;15.95;;;4.60;94.40;;;;;;2081219;28;20033;-82
2021/01/29 01:56:30;;;;;;;30.52;14.82;;;4.60;94.40;;;;;;2086941;28;20545;-82
2021/01/29 01:57:33;;;;;;;39.30;15.43;;;4.60;94.40;;;;;;2081737;28;20464;-81
2021/01/29 01:58:34;;;;;;;50.13;15.40;;;4.60;94.40;;;;;;2083521;28;20030;-82
2021/01/29 01:59:40;;;;;;;38.95;15.55;;;4.60;94.40;;;;;;2081588;28;20037;-81
2021/01/29 02:00:41;;;;;;;33.33;14.50;;;4.60;94.40;;;;;;2079847;28;20021;-81
2021/01/29 02:01:45;;;;;;;36.35;14.88;;;4.60;94.50;;;;;;2075586;28;20115;-82
2021/01/29 02:02:49;;;;;;;41.53;14.93;;;4.60;94.40;;;;;;2085215;28;20067;-82
2021/01/29 02:03:52;;;;;;;65.43;17.27;;;4.70;94.50;;;;;;2102645;28;20111;-82
2021/01/29 02:04:54;;;;;;;33.22;14.52;;;4.60;94.40;;;;;;2079486;28;20079;-82
2021/01/29 02:05:57;;;;;;;53.88;15.70;;;4.60;94.40;;;;;;2066110;28;20033;-82
2021/01/29 02:07:19;;;;;;;28.73;13.88;;;4.60;94.50;;;;;;2072220;28;20033;-82
2021/01/29 02:08:20;;;;;;;37.15;13.95;;;4.70;94.50;;;;;;2081675;28;20029;-82
2021/01/29 02:09:23;;;;;;;37.25;14.80;;;4.70;94.50;;;;;;2065317;28;20431;-81
2021/01/29 02:10:27;;;;;;;50.72;15.25;;;4.70;94.80;;;;;;2075037;28;20558;-82
2021/01/29 02:11:27;;;;;;;29.45;14.50;;;4.70;94.50;;;;;;2096287;28;20123;-82
2021/01/29 02:12:28;;;;;;;29.73;13.65;;;4.70;94.50;;;;;;2081098;28;20018;-82
2021/01/29 02:13:29;;;;;;;31.60;14.48;;;4.70;94.50;;;;;;2079523;28;20399;-82
2021/01/29 02:14:30;;;;;;;31.75;13.50;;;4.70;94.50;;;;;;2079577;28;20077;-82
2021/01/29 02:15:46;;;;;;;27.30;13.38;;;4.70;94.50;;;;;;2075589;28;20084;-82
2021/01/29 02:16:54;;;;;;;42.15;13.65;;;4.70;94.50;;;;;;2089507;28;20033;-82
2021/01/29 02:17:59;;;;;;;50.72;14.30;;;4.80;94.50;;;;;;2082614;28;20115;-82
2021/01/29 02:19:43;;;;;;;56.83;15.18;;;4.80;94.50;;;;;;2072793;28;20404;-82
2021/01/29 02:21:20;;;;;;;55.28;15.52;;;4.70;94.50;;;;;;2080409;28;20045;-81
2021/01/29 02:22:44;;;;;;;28.00;13.32;;;4.70;94.40;;;;;;2093995;28;20032;-82
2021/01/29 02:24:06;;;;;;;37.72;13.82;;;4.70;94.40;;;;;;2084222;28;20053;-82
2021/01/29 02:25:54;;;;;;;26.65;12.43;;;4.70;94.40;;;;;;2081106;28;20064;-82
2021/01/29 02:27:07;;;;;;;73.25;12.90;;;4.70;94.40;;;;;;2072833;28;20181;-82
2021/01/29 02:28:32;;;;;;;67.82;14.18;;;4.80;94.40;;;;;;2073110;28;20026;-82
2021/01/29 02:30:01;;;;;;;110.90;16.95;;;4.80;94.40;;;;;;2081706;28;20120;-82
2021/01/29 02:31:22;;;;;;;34.05;14.27;;;4.80;94.40;;;;;;2082946;28;20030;-82
2021/01/29 02:32:49;;;;;;;51.22;14.35;;;4.80;94.40;;;;;;2097210;28;20028;-81
2021/01/29 02:34:08;;;;;;;24.63;12.75;;;4.80;94.40;;;;;;2087785;28;20112;-82
2021/01/29 02:35:30;;;;;;;24.73;12.70;;;4.80;94.40;;;;;;2076648;28;20117;-82
2021/01/29 02:36:52;;;;;;;85.75;14.43;;;4.80;94.40;;;;;;2089706;28;20044;-81
2021/01/29 02:38:33;;;;;;;49.45;15.00;;;4.80;94.40;;;;;;2085247;28;20033;-82
2021/01/29 02:40:11;;;;;;;24.40;12.48;;;4.80;94.40;;;;;;2079133;28;20084;-82
2021/01/29 02:41:36;;;;;;;57.25;14.73;;;4.80;94.40;;;;;;2075557;28;20033;-82
2021/01/29 02:43:02;;;;;;;55.28;14.65;;;4.80;94.40;;;;;;2080907;28;20551;-81
2021/01/29 02:44:08;;;;;;;62.80;15.43;;;4.90;94.40;;;;;;2081126;28;20093;-82
2021/01/29 02:45:22;;;;;;;26.70;13.80;;;4.90;94.40;;;;;;2093759;28;20442;-81
2021/01/29 02:46:43;;;;;;;27.08;12.65;;;4.90;94.40;;;;;;2087706;28;20091;-81
2021/01/29 02:48:22;;;;;;;66.05;15.27;;;4.90;94.40;;;;;;2082836;28;20035;-82
2021/01/29 02:49:41;;;;;;;49.78;14.52;;;4.90;94.40;;;;;;2076487;28;20107;-81
2021/01/29 02:51:16;;;;;;;28.45;13.13;;;4.90;94.40;;;;;;2079662;28;20045;-82
2021/01/29 02:52:34;;;;;;;24.58;12.27;;;4.90;94.40;;;;;;2080871;28;20068;-82
2021/01/29 02:53:51;;;;;;;33.97;13.30;;;5.00;94.40;;;;;;2074428;28;20026;-81
2021/01/29 02:55:22;;;;;;;26.05;12.50;;;5.00;94.40;;;;;;2081696;28;20041;-81
2021/01/29 02:56:44;;;;;;;37.92;15.05;;;5.00;94.40;;;;;;2077349;28;20037;-81
2021/01/29 02:57:57;;;;;;;31.20;13.15;;;5.00;94.40;;;;;;2076815;28;20112;-82
2021/01/29 02:59:13;;;;;;;35.60;14.20;;;5.00;94.40;;;;;;2080563;28;20017;-82
2021/01/29 03:00:22;;;;;;;29.63;13.05;;;5.00;94.40;;;;;;2074249;28;20069;-82
2021/01/29 03:01:39;;;;;;;29.10;13.32;;;5.10;94.40;;;;;;2073273;28;20038;-82
2021/01/29 03:02:53;;;;;;;33.85;13.27;;;5.10;94.40;;;;;;2085503;28;20365;-82
2021/01/29 03:04:19;;;;;;;30.52;14.00;;;5.10;94.40;;;;;;2080576;28;20021;-82
2021/01/29 03:05:27;;;;;;;30.33;14.05;;;5.10;94.40;;;;;;2081414;28;20154;-82
2021/01/29 03:06:39;;;;;;;26.45;13.55;;;5.10;94.40;;;;;;2073656;28;20090;-82
2021/01/29 03:07:50;;;;;;;34.72;15.23;;;5.10;94.40;;;;;;2081301;28;20472;-81
2021/01/29 03:09:04;;;;;;;30.90;13.85;;;5.10;94.50;;;;;;2089829;28;20073;-82
2021/01/29 03:10:29;;;;;;;31.65;14.15;;;5.10;94.50;;;;;;2088844;28;20017;-82
2021/01/29 03:11:37;;;;;;;31.13;13.52;;;5.10;94.50;;;;;;2080636;28;20111;-82
2021/01/29 03:12:44;;;;;;;27.85;12.77;;;5.20;94.50;;;;;;2077232;28;20373;-82
2021/01/29 03:13:46;;;;;;;30.05;13.82;;;5.20;94.50;;;;;;2081618;28;20071;-82
2021/01/29 03:14:56;;;;;;;40.58;14.68;;;5.10;94.50;;;;;;2080764;28;20112;-82
2021/01/29 03:16:09;;;;;;;46.90;15.93;;;5.20;94.50;;;;;;2082165;28;20041;-82
2021/01/29 03:17:20;;;;;;;33.97;14.35;;;5.20;94.50;;;;;;2081607;28;20740;-82
2021/01/29 03:18:31;;;;;;;28.98;13.18;;;5.20;94.50;;;;;;2081923;28;20434;-79
2021/01/29 03:19:43;;;;;;;24.13;13.30;;;5.20;94.50;;;;;;2078929;28;20041;-82
2021/01/29 03:21:07;;;;;;;25.65;13.05;;;5.20;94.50;;;;;;2089296;28;20376;-82
2021/01/29 03:22:17;;;;;;;23.85;11.73;;;5.20;94.50;;;;;;2084545;28;20088;-82
2021/01/29 03:23:29;;;;;;;41.40;15.73;;;5.20;94.50;;;;;;2087288;28;20021;-81
2021/01/29 03:24:40;;;;;;;44.55;15.80;;;5.30;94.60;;;;;;2088745;28;20028;-82
2021/01/29 03:25:44;;;;;;;;;;;5.30;94.60;;;;;;2085742;28;20028;-81
2021/01/29 03:26:57;;;;;;;32.58;13.52;;;5.30;94.50;;;;;;2081169;28;20221;-82
2021/01/29 03:28:04;;;;;;;24.88;12.57;;;5.30;94.50;;;;;;2084840;28;20122;-82
2021/01/29 03:29:10;;;;;;;26.25;12.40;;;5.30;94.50;;;;;;2065493;28;20018;-81
2021/01/29 03:30:16;;;;;;;24.88;12.57;;;5.30;94.50;;;;;;2075903;28;20033;-82
2021/01/29 03:31:20;;;;;;;30.30;13.20;;;5.40;94.50;;;;;;2088886;28;20048;-82
2021/01/29 03:32:23;;;;;;;23.27;12.02;;;5.40;94.80;;;;;;2072389;28;20097;-81
2021/01/29 03:33:28;;;;;;;23.63;12.13;;;5.40;94.50;;;;;;2088136;28;20028;-82
2021/01/29 03:34:58;;;;;;;27.55;13.05;;;5.40;94.60;;;;;;2086652;28;20010;-81
2021/01/29 03:36:02;;;;;;;23.98;12.43;;;5.40;94.60;;;;;;2097426;28;20086;-80
2021/01/29 03:37:24;;;;;;;31.45;13.15;;;5.50;94.60;;;;;;2099088;28;20025;-80
2021/01/29 03:38:37;;;;;;;23.98;11.90;;;5.50;94.60;;;;;;2097337;28;20001;-81
2021/01/29 03:39:38;;;;;;;37.10;14.23;;;5.50;94.60;;;;;;2091450;28;20025;-81
2021/01/29 03:40:40;;;;;;;27.92;13.80;;;5.50;94.50;;;;;;2090208;28;20506;-81
2021/01/29 03:41:45;;;;;;;28.15;13.40;;;5.50;94.50;;;;;;2073638;28;20040;-81
2021/01/29 03:43:27;;;;;;;28.65;14.30;;;5.50;94.60;;;;;;2082701;28;20045;-81
2021/01/29 03:44:59;;;;;;;23.85;12.60;;;5.50;94.60;;;;;;2092351;28;20060;-81
2021/01/29 03:46:14;;;;;;;26.58;12.50;;;5.50;94.50;;;;;;2092758;28;20041;-81
2021/01/29 03:47:24;;;;;;;21.13;10.70;;;5.60;94.50;;;;;;2089115;28;20025;-80
2021/01/29 03:48:32;;;;;;;23.65;11.98;;;5.50;94.50;;;;;;2092457;28;20018;-81
2021/01/29 03:49:41;;;;;;;22.98;12.07;;;5.60;94.50;;;;;;2090692;28;20048;-81
2021/01/29 03:50:51;;;;;;;21.30;10.38;;;5.60;94.50;;;;;;2081893;28;20045;-81
2021/01/29 03:51:59;;;;;;;25.60;11.43;;;5.60;94.60;;;;;;2081250;28;20041;-81
2021/01/29 03:53:18;;;;;;;23.00;11.88;;;5.60;94.60;;;;;;2083862;28;20021;-81
2021/01/29 03:54:25;;;;;;;23.00;11.50;;;5.60;94.60;;;;;;2073122;28;20018;-81
2021/01/29 03:55:41;;;;;;;22.23;11.40;;;5.60;94.60;;;;;;2080750;28;20029;-81
2021/01/29 03:57:17;;;;;;;21.98;11.27;;;5.60;94.60;;;;;;2081045;28;20048;-81
2021/01/29 03:58:32;;;;;;;19.80;10.23;;;5.70;94.60;;;;;;2083506;28;20057;-81
2021/01/29 03:59:59;;;;;;;24.13;11.13;;;5.60;94.50;;;;;;2082187;28;20037;-80
2021/01/29 04:01:05;;;;;;;28.23;12.48;;;5.60;94.50;;;;;;2073458;28;20037;-81
2021/01/29 04:02:38;;;;;;;28.83;12.27;;;5.60;94.50;;;;;;2079836;28;20018;-81
2021/01/29 04:03:47;;;;;;;25.17;11.60;;;5.70;94.50;;;;;;2069726;28;20061;-81
2021/01/29 04:05:04;;;;;;;27.15;11.98;;;5.70;94.50;;;;;;2087810;28;20525;-81
2021/01/29 04:06:12;;;;;;;25.00;11.65;;;5.70;94.50;;;;;;2105033;28;20025;-81
2021/01/29 04:07:31;;;;;;;21.83;11.02;;;5.70;94.50;;;;;;2090808;28;20044;-80
2021/01/29 04:08:44;;;;;;;20.02;10.20;;;5.70;94.50;;;;;;2091493;28;20083;-81
2021/01/29 04:09:53;;;;;;;18.23;10.40;;;5.70;94.60;;;;;;2090570;28;20036;-81
2021/01/29 04:10:57;;;;;;;23.38;11.25;;;5.70;94.60;;;;;;2088365;28;20415;-82
2021/01/29 04:12:01;;;;;;;22.80;11.30;;;5.70;94.60;;;;;;2081470;28;20014;-81
2021/01/29 04:13:04;;;;;;;23.58;11.32;;;5.70;94.60;;;;;;2081408;28;20040;-81
2021/01/29 04:14:11;;;;;;;23.33;11.82;;;5.70;94.60;;;;;;2080601;28;20089;-81
2021/01/29 04:15:20;;;;;;;21.60;10.55;;;5.70;94.60;;;;;;2077176;28;20033;-81
2021/01/29 04:16:39;;;;;;;21.38;10.38;;;5.70;94.60;;;;;;2081255;28;20479;-80
2021/01/29 04:17:57;;;;;;;26.88;11.15;;;5.80;94.60;;;;;;2083300;28;20017;-80
2021/01/29 04:19:01;;;;;;;20.13;10.38;;;5.80;94.60;;;;;;2089068;28;20082;-81
2021/01/29 04:20:13;;;;;;;18.25;9.52;;;5.80;94.60;;;;;;2081623;28;20029;-80
2021/01/29 04:21:30;;;;;;;17.13;9.18;;;5.80;94.70;;;;;;2074141;28;20034;-81
2021/01/29 04:22:36;;;;;;;19.13;9.63;;;5.80;94.60;;;;;;2073746;28;20026;-81
2021/01/29 04:23:51;;;;;;;21.92;10.25;;;5.90;94.60;;;;;;2080457;28;20018;-80
2021/01/29 04:25:19;;;;;;;22.25;9.85;;;5.90;94.90;;;;;;2082670;28;20030;-80
2021/01/29 04:26:24;;;;;;;15.85;9.05;;;5.80;94.60;;;;;;2075029;28;20481;-81
2021/01/29 04:27:31;;;;;;;18.88;9.80;;;5.80;94.60;;;;;;2084443;28;20108;-81
2021/01/29 04:28:38;;;;;;;20.92;9.60;;;5.90;94.60;;;;;;2074116;28;20026;-81
2021/01/29 04:29:52;;;;;;;18.77;10.30;;;5.90;94.60;;;;;;2092793;28;20067;-80
2021/01/29 04:30:55;;;;;;;22.83;10.80;;;5.90;94.60;;;;;;2099894;28;20406;-81
2021/01/29 04:32:02;;;;;;;18.63;9.50;;;5.90;94.60;;;;;;2082856;28;20024;-81
2021/01/29 04:33:13;;;;;;;17.60;9.30;;;5.90;94.60;;;;;;2085735;28;20083;-81
2021/01/29 04:34:27;;;;;;;18.70;9.98;;;5.90;94.70;;;;;;2086550;28;20026;-81
2021/01/29 04:35:31;;;;;;;20.63;9.68;;;6.00;94.70;;;;;;2079525;28;20485;-81
2021/01/29 04:36:35;;;;;;;16.25;9.40;;;6.00;94.70;;;;;;2082002;28;20017;-81
2021/01/29 04:37:40;;;;;;;17.02;9.85;;;6.00;94.70;;;;;;2082289;28;20498;-81
2021/01/29 04:38:46;;;;;;;16.92;8.65;;;5.90;94.60;;;;;;2088495;28;20189;-81
2021/01/29 04:39:51;;;;;;;16.52;9.32;;;6.00;94.60;;;;;;2077495;28;20037;-81
2021/01/29 04:40:55;;;;;;;17.77;8.90;;;6.00;94.70;;;;;;2082632;28;20116;-81
2021/01/29 04:42:02;;;;;;;14.52;8.20;;;6.00;94.70;;;;;;2089299;28;20364;-81
2021/01/29 04:43:37;;;;;;;15.52;9.13;;;6.00;94.70;;;;;;2073669;28;20054;-81
2021/01/29 04:44:49;;;;;;;18.23;8.73;;;6.10;94.70;;;;;;2081272;28;20064;-82
2021/01/29 04:45:52;;;;;;;14.15;8.20;;;6.00;94.60;;;;;;2086799;28;20116;-82
2021/01/29 04:47:02;;;;;;;17.67;8.90;;;6.10;94.70;;;;;;2087601;28;20046;-81
2021/01/29 04:48:22;;;;;;;14.32;7.88;;;6.10;94.70;;;;;;2083188;28;20120;-82
2021/01/29 04:50:05;;;;;;;13.50;7.45;;;6.10;94.60;;;;;;2081269;28;20060;-82
2021/01/29 04:51:24;;;;;;;13.20;7.00;;;6.10;94.60;;;;;;2065798;28;20085;-82
2021/01/29 04:52:30;;;;;;;12.30;7.35;;;6.10;94.60;;;;;;2083505;28;20599;-81
2021/01/29 04:54:09;;;;;;;13.38;7.13;;;6.10;94.60;;;;;;2088215;28;20051;-81
2021/01/29 04:55:40;;;;;;;12.90;7.05;;;6.20;94.60;;;;;;2085102;28;20037;-81
2021/01/29 04:56:59;;;;;;;;;;;6.20;94.60;;;;;;2082945;28;20048;-82
2021/01/29 04:58:14;;;;;;;11.27;6.05;;;6.10;94.50;;;;;;2081046;28;20267;-82
2021/01/29 04:59:49;;;;;;;11.93;6.68;;;6.10;94.50;;;;;;2082625;28;20034;-82
2021/01/29 05:01:34;;;;;;;12.55;7.38;;;6.20;94.50;;;;;;2095546;28;20449;-81
2021/01/29 05:03:04;;;;;;;11.25;6.22;;;6.20;94.50;;;;;;2083187;28;20022;-81
2021/01/29 05:04:07;;;;;;;12.02;6.72;;;6.20;94.50;;;;;;2085072;28;20037;-81
2021/01/29 05:05:23;;;;;;;11.68;6.88;;;6.20;94.50;;;;;;2085645;28;20072;-81
2021/01/29 05:06:38;;;;;;;11.00;6.32;;;6.20;94.50;;;;;;2075848;28;20032;-81
2021/01/29 05:08:09;;;;;;;11.15;6.43;;;6.20;94.50;;;;;;2079846;28;20025;-81
2021/01/29 05:09:20;;;;;;;11.85;6.65;;;6.20;94.50;;;;;;2082374;28;20087;-81
2021/01/29 05:10:56;;;;;;;10.93;6.18;;;6.20;94.50;;;;;;2079939;28;20526;-81
2021/01/29 05:12:22;;;;;;;9.30;5.85;;;6.20;94.50;;;;;;2078927;28;20082;-81
2021/01/29 05:14:00;;;;;;;9.90;5.80;;;6.30;94.50;;;;;;2083009;28;20432;-81
2021/01/29 05:15:03;;;;;;;9.65;6.03;;;6.30;94.50;;;;;;2079084;28;20056;-81
2021/01/29 05:16:31;;;;;;;9.85;5.70;;;6.30;94.50;;;;;;2082430;28;20502;-81
2021/01/29 05:17:44;;;;;;;10.65;6.03;;;6.30;94.50;;;;;;2082455;28;20041;-82
2021/01/29 05:18:50;;;;;;;10.68;5.53;;;6.30;94.50;;;;;;2079445;28;20040;-81
2021/01/29 05:20:06;;;;;;;10.10;5.40;;;6.30;94.50;;;;;;2078342;28;20412;-81
2021/01/29 05:21:25;;;;;;;9.75;5.50;;;6.30;94.50;;;;;;2079052;28;20029;-81
2021/01/29 05:22:55;;;;;;;10.32;5.82;;;6.30;94.50;;;;;;2082856;28;20033;-82
2021/01/29 05:24:23;;;;;;;10.80;5.85;;;6.30;94.50;;;;;;2081957;28;20482;-81
2021/01/29 05:25:41;;;;;;;9.95;5.95;;;6.30;94.50;;;;;;2093583;28;20025;-82
2021/01/29 05:27:00;;;;;;;10.00;5.95;;;6.30;94.50;;;;;;2087831;28;20455;-81
2021/01/29 05:28:25;;;;;;;9.50;5.85;;;6.30;94.50;;;;;;2087803;28;20029;-82
2021/01/29 05:29:59;;;;;;;9.10;5.40;;;6.30;94.50;;;;;;2090276;28;20123;-81
2021/01/29 05:31:23;;;;;;;9.43;5.50;;;6.30;94.50;;;;;;2078730;28;20498;-81
2021/01/29 05:32:49;;;;;;;9.48;5.22;;;6.30;94.60;;;;;;2089531;28;20021;-81
2021/01/29 05:34:24;;;;;;;10.38;5.50;;;6.30;94.60;;;;;;2082752;28;20499;-81
2021/01/29 05:35:46;;;;;;;7.78;4.68;;;6.30;94.60;;;;;;2088080;28;20037;-81
2021/01/29 05:37:05;;;;;;;9.68;5.50;;;6.40;94.60;;;;;;2081737;28;20111;-81
2021/01/29 05:38:30;;;;;;;8.98;5.07;;;6.30;94.50;;;;;;2081741;28;20017;-81
2021/01/29 05:39:40;;;;;;;9.57;5.55;;;6.30;94.50;;;;;;2078727;28;20125;-81
2021/01/29 05:40:43;;;;;;;8.80;5.35;;;6.40;94.50;;;;;;2085588;28;20064;-81
2021/01/29 05:42:02;;;;;;;10.15;6.00;;;6.40;94.50;;;;;;2089824;28;20043;-81
2021/01/29 05:43:26;;;;;;;9.65;5.22;;;6.40;94.50;;;;;;2083015;28;20021;-81
2021/01/29 05:44:49;;;;;;;9.18;5.80;;;6.40;94.50;;;;;;2076561;28;20026;-81
2021/01/29 05:46:14;;;;;;;8.43;4.82;;;6.40;94.50;;;;;;2088344;28;20531;-81
2021/01/29 05:47:40;;;;;;;9.52;5.60;;;6.40;94.50;;;;;;2074160;28;20034;-81
2021/01/29 05:49:12;;;;;;;8.70;5.40;;;6.50;94.50;;;;;;2075791;28;20484;-81
2021/01/29 05:51:01;;;;;;;9.45;5.32;;;6.40;94.50;;;;;;2082258;28;20491;-81
2021/01/29 05:52:29;;;;;;;8.63;5.07;;;6.50;94.50;;;;;;2081108;28;20507;-81
2021/01/29 05:54:00;;;;;;;9.30;5.10;;;6.50;94.50;;;;;;2084684;28;20464;-82
2021/01/29 05:55:01;;;;;;;;;;;6.50;94.50;;;;;;2085396;28;20029;-81
2021/01/29 05:56:16;;;;;;;9.00;4.55;;;6.50;94.40;;;;;;2081062;28;19917;-81
2021/01/29 05:57:35;;;;;;;7.53;4.85;;;6.50;94.40;;;;;;2072828;28;20197;-81
2021/01/29 05:58:36;;;;;;;8.85;5.03;;;6.50;94.40;;;;;;2081555;28;20582;-81
2021/01/29 05:59:54;;;;;;;8.32;5.03;;;6.50;94.40;;;;;;2075379;28;20030;-81
2021/01/29 06:01:07;;;;;;;8.93;5.25;;;6.50;94.40;;;;;;2081635;28;20025;-82
2021/01/29 06:02:43;;;;;;;8.48;5.20;;;6.50;94.40;;;;;;2085921;28;20060;-82
2021/01/29 06:04:03;;;;;;;8.60;5.07;;;6.50;94.50;;;;;;2077059;28;20029;-82
2021/01/29 06:05:30;;;;;;;9.18;5.22;;;6.60;94.50;;;;;;2082914;28;20031;-82
2021/01/29 06:07:12;;;;;;;8.25;4.43;;;6.60;94.50;;;;;;2075105;28;20488;-82